createdAt,value
2023-01-09T00:00:16.359Z,10.70
2023-01-09T00:02:47.084Z,14.25
2023-01-09T00:05:18.617Z,9.20
2023-01-09T00:07:48.554Z,8.63
2023-01-09T00:10:18.142Z,17.57
2023-01-09T00:12:47.569Z,22.27
2023-01-09T00:15:17.454Z,15.05
2023-01-09T00:17:48.317Z,8.98
2023-01-09T00:20:18.130Z,15.58
2023-01-09T00:22:47.619Z,20.20
2023-01-09T00:25:17.220Z,9.53
2023-01-09T00:27:47.039Z,13.62
2023-01-09T00:30:16.611Z,16.00
2023-01-09T00:32:46.869Z,8.33
2023-01-09T00:35:19.197Z,6.97
2023-01-09T00:37:48.938Z,14.87
2023-01-09T00:40:19.705Z,21.75
2023-01-09T00:42:52.697Z,8.80
2023-01-09T00:45:26.883Z,5.80
2023-01-09T00:47:59.085Z,8.33
2023-01-09T00:50:32.117Z,7.37
2023-01-09T00:53:04.723Z,8.48
2023-01-09T00:55:36.391Z,11.10
2023-01-09T00:58:06.570Z,6.12
2023-01-09T01:00:36.134Z,6.25
2023-01-09T01:03:05.648Z,10.58
2023-01-09T01:05:54.040Z,10.40
2023-01-09T01:08:23.464Z,11.63
2023-01-09T01:10:53.357Z,9.10
2023-01-09T01:13:22.793Z,8.58
2023-01-09T01:15:52.267Z,10.15
2023-01-09T01:18:21.992Z,12.00
2023-01-09T01:20:51.394Z,6.00
2023-01-09T01:23:20.815Z,11.03
2023-01-09T01:25:50.658Z,9.10
2023-01-09T01:28:20.068Z,11.22
2023-01-09T01:30:49.566Z,10.28
2023-01-09T01:33:19.101Z,9.70
2023-01-09T01:35:49.880Z,11.53
2023-01-09T01:38:19.319Z,7.17
2023-01-09T01:40:51.921Z,9.68
2023-01-09T01:45:50.024Z,6.78
2023-01-09T01:48:25.657Z,10.20
2023-01-09T01:50:58.226Z,13.47
2023-01-09T01:53:33.796Z,10.95
2023-01-09T01:56:22.702Z,10.03
2023-01-09T01:59:01.065Z,8.60
2023-01-09T02:01:33.036Z,15.13
2023-01-09T02:04:03.859Z,54.38
2023-01-09T02:06:36.229Z,17.85
2023-01-09T02:09:07.590Z,11.03
2023-01-09T02:11:37.113Z,27.52
2023-01-09T02:14:06.643Z,27.70
2023-01-09T02:17:00.257Z,35.65
2023-01-09T02:19:50.412Z,18.25
2023-01-09T02:22:45.747Z,11.43
2023-01-09T02:25:30.376Z,13.68
2023-01-09T02:28:12.286Z,19.85
2023-01-09T02:30:53.949Z,17.83
2023-01-09T02:33:29.599Z,11.25
2023-01-09T02:36:17.178Z,15.97
2023-01-09T02:38:55.397Z,12.35
2023-01-09T02:41:37.391Z,17.65
2023-01-09T02:44:28.437Z,11.13
2023-01-09T02:47:06.996Z,10.20
2023-01-09T02:49:39.582Z,14.35
2023-01-09T02:52:17.966Z,12.68
2023-01-09T02:54:59.688Z,12.03
2023-01-09T02:58:05.268Z,14.23
2023-01-09T03:00:57.991Z,11.93
2023-01-09T03:03:42.124Z,15.40
2023-01-09T03:06:23.528Z,16.95
2023-01-09T03:08:58.762Z,17.52
2023-01-09T03:11:31.743Z,10.25
2023-01-09T03:14:04.236Z,11.80
2023-01-09T03:16:37.229Z,12.18
2023-01-09T03:19:09.797Z,9.60
2023-01-09T03:21:40.936Z,13.30
2023-01-09T03:25:41.947Z,14.00
2023-01-09T03:28:26.631Z,10.88
2023-01-09T03:30:56.514Z,15.23
2023-01-09T03:33:26.367Z,9.80
2023-01-09T03:35:55.787Z,10.15
2023-01-09T03:38:25.285Z,13.40
2023-01-09T03:40:55.505Z,15.40
2023-01-09T03:43:24.924Z,10.43
2023-01-09T03:45:54.527Z,12.70
2023-01-09T03:48:24.403Z,10.63
2023-01-09T03:50:55.153Z,13.72
2023-01-09T03:53:27.496Z,12.03
2023-01-09T03:55:59.481Z,9.33
2023-01-09T03:58:29.091Z,11.85
2023-01-09T04:01:04.289Z,8.73
2023-01-09T04:03:34.116Z,14.30
2023-01-09T04:06:03.514Z,15.00
2023-01-09T04:08:32.935Z,13.30
2023-01-09T04:11:02.383Z,11.08
2023-01-09T04:13:31.820Z,10.43
2023-01-09T04:16:01.303Z,10.05
2023-01-09T04:18:31.381Z,10.53
2023-01-09T04:21:00.800Z,19.00
2023-01-09T04:23:30.229Z,13.50
2023-01-09T04:25:59.708Z,14.10
2023-01-09T04:28:29.174Z,10.90
2023-01-09T04:30:58.607Z,12.75
2023-01-09T04:33:28.409Z,13.55
2023-01-09T04:35:57.901Z,12.93
2023-01-09T04:38:27.693Z,7.55
2023-01-09T04:40:57.135Z,10.90
2023-01-09T04:43:27.186Z,11.03
2023-01-09T04:45:56.700Z,7.67
2023-01-09T04:48:26.667Z,8.88
2023-01-09T04:50:56.085Z,13.85
2023-01-09T04:53:25.515Z,10.88
2023-01-09T04:55:54.966Z,13.40
2023-01-09T04:58:24.395Z,7.15
2023-01-09T05:00:53.894Z,9.48
2023-01-09T05:03:23.371Z,10.63
2023-01-09T05:05:53.384Z,15.28
2023-01-09T05:08:22.808Z,13.50
2023-01-09T05:10:52.616Z,11.90
2023-01-09T05:13:22.120Z,15.05
2023-01-09T05:15:51.540Z,15.18
2023-01-09T05:18:21.059Z,10.80
2023-01-09T05:20:50.515Z,11.43
2023-01-09T05:23:19.938Z,7.92
2023-01-09T05:25:49.417Z,13.60
2023-01-09T05:28:18.908Z,11.53
2023-01-09T05:30:49.179Z,10.82
2023-01-09T05:33:18.780Z,11.60
2023-01-09T05:35:48.212Z,11.88
2023-01-09T05:38:18.435Z,9.43
2023-01-09T05:40:48.044Z,8.93
2023-01-09T05:43:17.524Z,11.30
2023-01-09T05:45:47.027Z,8.58
2023-01-09T05:48:16.457Z,14.80
2023-01-09T05:50:45.906Z,11.25
2023-01-09T05:53:15.845Z,17.82
2023-01-09T05:55:46.400Z,9.75
2023-01-09T05:58:16.282Z,10.85
2023-01-09T06:00:45.836Z,15.80
2023-01-09T06:03:15.343Z,13.88
2023-01-09T06:05:44.857Z,11.93
2023-01-09T06:08:14.266Z,8.93
2023-01-09T06:10:43.921Z,9.88
2023-01-09T06:45:29.831Z,12.80
2023-01-09T06:47:59.349Z,9.85
2023-01-09T06:50:28.842Z,11.68
2023-01-09T06:52:58.249Z,11.05
2023-01-09T06:55:27.754Z,9.18
2023-01-09T06:57:57.266Z,15.63
2023-01-09T07:00:27.614Z,17.70
2023-01-09T07:02:57.269Z,13.50
2023-01-09T07:05:26.796Z,11.93
2023-01-09T07:07:57.590Z,13.18
2023-01-09T07:10:27.153Z,19.42
2023-01-09T07:12:56.589Z,10.93
2023-01-09T07:15:26.244Z,9.88
2023-01-09T07:17:55.756Z,11.10
2023-01-09T07:20:25.247Z,7.95
2023-01-09T07:22:55.350Z,14.33
2023-01-09T07:25:24.968Z,14.55
2023-01-09T07:27:54.389Z,9.65
2023-01-09T07:30:24.034Z,11.93
2023-01-09T07:32:54.460Z,8.68
2023-01-09T07:35:24.170Z,10.73
2023-01-09T07:37:53.793Z,4.35
2023-01-09T07:40:24.709Z,15.80
2023-01-09T07:42:54.806Z,8.80
2023-01-09T07:45:26.047Z,10.80
2023-01-09T07:47:55.467Z,9.10
2023-01-09T07:50:24.891Z,5.53
2023-01-09T07:52:54.782Z,9.40
2023-01-09T07:55:24.207Z,8.90
2023-01-09T07:57:55.586Z,9.20
2023-01-09T08:00:25.152Z,7.45
2023-01-09T08:02:54.895Z,11.35
2023-01-09T08:05:24.701Z,8.47
2023-01-09T08:07:54.209Z,9.48
2023-01-09T08:10:23.713Z,7.45
2023-01-09T08:12:53.206Z,7.37
2023-01-09T08:15:22.634Z,7.47
2023-01-09T08:17:52.058Z,8.15
2023-01-09T08:20:22.161Z,7.85
2023-01-09T08:22:53.307Z,9.40
2023-01-09T08:25:22.772Z,8.70
2023-01-09T08:27:53.364Z,9.95
2023-01-09T08:30:24.127Z,10.13
2023-01-09T08:32:55.604Z,9.65
2023-01-09T08:35:25.609Z,12.35
2023-01-09T08:37:55.858Z,9.28
2023-01-09T08:40:25.433Z,14.98
2023-01-09T08:43:12.845Z,11.15
2023-01-09T08:46:00.148Z,11.53
2023-01-09T08:48:29.987Z,10.63
2023-01-09T08:50:59.571Z,9.70
2023-01-09T08:53:29.806Z,11.10
2023-01-09T08:55:59.364Z,8.05
2023-01-09T08:58:30.252Z,6.25
2023-01-09T09:01:00.684Z,7.92
2023-01-09T09:03:30.091Z,3.95
2023-01-09T09:05:59.533Z,7.53
2023-01-09T09:08:29.070Z,7.90
2023-01-09T09:11:00.132Z,4.25
2023-01-09T09:13:29.645Z,5.83
2023-01-09T09:15:59.211Z,6.50
2023-01-09T09:18:28.908Z,6.37
2023-01-09T09:20:58.621Z,4.97
2023-01-09T09:23:28.031Z,10.45
2023-01-09T09:25:57.516Z,7.45
2023-01-09T09:28:26.996Z,9.33
2023-01-09T09:30:56.432Z,6.60
2023-01-09T09:33:26.515Z,4.50
2023-01-09T09:35:57.009Z,6.03
2023-01-09T09:38:26.433Z,8.63
2023-01-09T09:41:07.770Z,7.28
2023-01-09T09:44:03.842Z,10.03
2023-01-09T09:46:46.739Z,7.55
2023-01-09T09:51:50.599Z,11.93
2023-01-09T09:56:53.392Z,5.90
2023-01-09T09:59:27.017Z,8.53
2023-01-09T10:02:02.681Z,6.87
2023-01-09T10:04:35.094Z,9.73
2023-01-09T10:07:09.774Z,6.37
2023-01-09T10:09:51.011Z,7.75
2023-01-09T10:12:31.970Z,6.78
2023-01-09T10:15:19.452Z,6.47
2023-01-09T10:18:07.571Z,10.43
2023-01-09T10:20:57.874Z,6.87
2023-01-09T10:23:42.166Z,6.00
2023-01-09T10:26:40.552Z,5.97
2023-01-09T10:29:31.446Z,10.53
2023-01-09T10:32:31.769Z,4.67
2023-01-09T10:35:13.573Z,9.68
2023-01-09T10:40:22.714Z,8.43
2023-01-09T10:43:10.212Z,9.78
2023-01-09T10:45:47.401Z,4.50
2023-01-09T10:48:28.990Z,5.67
2023-01-09T10:51:00.451Z,7.00
2023-01-09T10:53:41.577Z,8.25
2023-01-09T10:56:20.375Z,4.47
2023-01-09T10:58:51.763Z,7.42
2023-01-09T11:01:27.146Z,7.35
2023-01-09T11:03:58.414Z,7.95
2023-01-09T11:06:31.448Z,10.20
2023-01-09T11:09:03.024Z,7.20
2023-01-09T11:11:38.662Z,8.63
2023-01-09T11:14:18.254Z,7.37
2023-01-09T11:16:57.120Z,5.33
2023-01-09T11:19:27.809Z,6.28
2023-01-09T11:22:18.899Z,5.87
2023-01-09T11:24:51.386Z,4.97
2023-01-09T11:27:24.244Z,6.10
2023-01-09T11:30:08.909Z,4.97
2023-01-09T11:32:38.798Z,5.85
2023-01-09T11:35:19.810Z,4.97
2023-01-09T11:38:10.557Z,4.78
2023-01-09T11:40:49.594Z,2.87
2023-01-09T11:43:22.511Z,3.75
2023-01-09T11:46:01.509Z,5.00
2023-01-09T11:48:43.819Z,3.37
2023-01-09T11:51:22.329Z,2.95
2023-01-09T11:53:55.018Z,3.90
2023-01-09T11:56:24.983Z,9.10
2023-01-09T11:58:54.849Z,7.75
2023-01-09T12:01:51.947Z,11.05
2023-01-09T12:04:40.983Z,7.92
2023-01-09T12:07:25.310Z,2.20
2023-01-09T12:10:03.799Z,6.00
2023-01-09T12:13:09.992Z,3.77
2023-01-09T12:15:48.644Z,4.00
2023-01-09T12:18:36.065Z,4.78
2023-01-09T12:21:31.305Z,2.35
2023-01-09T12:24:22.169Z,1.87
2023-01-09T12:27:17.113Z,6.78
2023-01-09T12:30:00.789Z,4.28
2023-01-09T12:32:35.930Z,1.65
2023-01-09T12:35:20.526Z,3.75
2023-01-09T12:37:58.624Z,4.20
2023-01-09T12:40:32.197Z,3.60
2023-01-09T12:43:24.152Z,3.77
2023-01-09T12:45:56.916Z,5.07
2023-01-09T12:48:37.028Z,4.12
2023-01-09T12:51:15.339Z,4.45
2023-01-09T12:53:47.934Z,5.63
2023-01-09T12:56:23.350Z,6.00
2023-01-09T12:58:55.848Z,4.30
2023-01-09T13:01:33.586Z,5.30
2023-01-09T13:04:15.261Z,4.92
2023-01-09T13:06:48.727Z,4.83
2023-01-09T13:09:24.696Z,6.10
2023-01-09T13:12:20.429Z,5.62
2023-01-09T13:15:08.134Z,5.50
2023-01-09T13:17:43.860Z,5.70
2023-01-09T13:20:22.599Z,6.40
2023-01-09T13:22:53.554Z,7.03
2023-01-09T13:25:37.844Z,8.90
2023-01-09T13:28:16.468Z,7.22
2023-01-09T13:31:07.091Z,7.30
2023-01-09T13:33:41.128Z,12.78
2023-01-09T13:36:13.781Z,9.18
2023-01-09T13:38:45.175Z,9.40
2023-01-09T13:41:35.834Z,10.13
2023-01-09T13:44:21.197Z,9.67
2023-01-09T13:46:56.868Z,9.75
2023-01-09T13:49:35.171Z,9.85
2023-01-09T13:52:26.442Z,10.58
2023-01-09T18:53:21.727Z,38.63
2023-01-09T18:55:51.944Z,25.15
2023-01-09T18:58:21.353Z,25.23
2023-01-09T19:00:52.233Z,28.10
2023-01-09T19:03:21.950Z,31.48
2023-01-09T19:05:51.553Z,31.73
2023-01-09T19:08:21.638Z,21.95
2023-01-09T19:10:54.864Z,23.85
2023-01-09T19:13:24.916Z,24.45
2023-01-09T19:15:59.162Z,29.60
2023-01-09T19:18:31.147Z,27.35
2023-01-09T19:21:00.647Z,16.27
2023-01-09T19:23:31.014Z,30.40
2023-01-09T19:26:03.512Z,27.15
2023-01-09T19:28:33.004Z,26.77
2023-01-09T19:31:03.770Z,36.50
2023-01-09T19:33:33.263Z,31.07
2023-01-09T19:36:02.695Z,32.45
2023-01-09T19:38:32.504Z,26.75
2023-01-09T19:41:12.659Z,32.23
2023-01-09T19:43:45.280Z,43.05
2023-01-09T19:46:20.721Z,69.30
2023-01-09T19:48:51.897Z,46.48
2023-01-09T19:51:23.131Z,52.13
2023-01-09T19:53:55.673Z,43.08
2023-01-09T19:56:28.589Z,40.40
2023-01-09T19:59:02.686Z,48.63
2023-01-09T20:01:35.087Z,48.78
2023-01-09T20:04:09.081Z,26.40
2023-01-09T20:06:44.164Z,29.37
2023-01-09T20:09:16.068Z,24.30
2023-01-09T20:11:45.977Z,25.08
2023-01-09T20:14:17.506Z,36.60
2023-01-09T20:16:48.871Z,36.40
2023-01-09T20:19:18.720Z,35.70
2023-01-09T20:21:49.442Z,34.18
2023-01-09T20:24:20.671Z,34.90
2023-01-09T20:26:51.262Z,34.27
2023-01-09T20:29:21.115Z,33.08
2023-01-09T20:31:50.744Z,33.67
2023-01-09T20:34:20.234Z,35.70
2023-01-09T20:36:49.867Z,21.17
2023-01-09T20:39:19.351Z,24.52
2023-01-09T20:41:48.849Z,24.82
2023-01-09T20:44:18.326Z,21.42
2023-01-09T20:46:48.462Z,28.00
2023-01-09T20:49:19.194Z,23.67
2023-01-09T20:51:52.134Z,35.00
2023-01-09T20:54:22.898Z,27.50
2023-01-09T20:56:52.390Z,52.20
2023-01-09T20:59:22.589Z,24.90
2023-01-09T21:01:52.397Z,32.10
2023-01-09T21:04:21.871Z,27.83
2023-01-09T21:06:51.870Z,24.10
2023-01-09T21:09:21.508Z,23.75
2023-01-09T21:11:51.492Z,21.80
2023-01-09T21:14:20.998Z,23.45
2023-01-09T21:16:54.921Z,27.00
2023-01-09T21:19:22.473Z,15.83
2023-01-09T21:21:53.417Z,22.07
2023-01-09T21:24:23.549Z,20.40
2023-01-09T21:26:52.978Z,19.77
2023-01-09T21:29:22.490Z,22.32
2023-01-09T21:31:52.493Z,25.03
2023-01-09T21:34:21.977Z,17.95
2023-01-09T21:36:52.173Z,20.85
2023-01-09T21:39:22.247Z,18.23
2023-01-09T21:42:09.953Z,21.77
2023-01-09T21:44:57.435Z,21.30
2023-01-09T21:47:27.017Z,20.23
2023-01-09T21:49:56.456Z,23.33
2023-01-09T21:52:25.889Z,21.93
2023-01-09T21:54:56.292Z,22.70
2023-01-09T21:57:25.722Z,22.17
2023-01-09T21:59:55.222Z,23.03
2023-01-09T22:02:24.761Z,25.70
2023-01-09T22:04:55.904Z,22.17
2023-01-09T22:07:25.652Z,22.32
2023-01-09T22:09:55.089Z,18.02
2023-01-09T22:12:24.532Z,21.27
2023-01-09T22:14:54.426Z,21.10
2023-01-09T22:17:23.844Z,20.13
2023-01-09T22:19:53.271Z,24.47
2023-01-09T22:22:22.757Z,20.43
2023-01-09T22:24:53.359Z,23.50
2023-01-09T22:27:23.967Z,22.10
2023-01-09T22:29:53.383Z,21.40
2023-01-09T22:32:22.891Z,23.25
2023-01-09T22:34:52.328Z,26.50
2023-01-09T22:37:23.316Z,25.52
2023-01-09T22:39:52.762Z,26.83
2023-01-09T22:42:22.263Z,25.57
2023-01-09T22:44:51.689Z,26.25
2023-01-09T22:47:21.122Z,22.35
2023-01-09T22:49:53.358Z,26.13
2023-01-09T22:52:22.448Z,18.35
2023-01-09T22:54:51.904Z,23.40
2023-01-09T22:57:21.509Z,25.17
2023-01-09T22:59:52.679Z,28.50
2023-01-09T23:02:22.236Z,23.85
2023-01-09T23:04:53.645Z,25.80
2023-01-09T23:07:23.085Z,25.48
2023-01-09T23:09:53.578Z,24.55
2023-01-09T23:12:24.161Z,28.13
2023-01-09T23:14:54.014Z,23.10
2023-01-09T23:17:23.531Z,23.62
2023-01-09T23:19:52.942Z,22.90
2023-01-09T23:22:23.357Z,25.47
2023-01-09T23:24:52.995Z,25.47
2023-01-09T23:27:22.426Z,24.33
2023-01-09T23:29:52.176Z,28.98
2023-01-09T23:32:21.607Z,17.93
2023-01-09T23:34:51.101Z,22.75
2023-01-09T23:37:20.892Z,22.62
2023-01-09T23:39:50.312Z,22.33
2023-01-09T23:42:37.840Z,26.85
2023-01-09T23:45:07.811Z,21.30
2023-01-09T23:47:37.345Z,21.48
2023-01-09T23:50:08.641Z,25.03
2023-01-09T23:52:38.284Z,24.07
2023-01-09T23:55:10.034Z,25.87
2023-01-09T23:57:39.468Z,23.77
